Terminal Aerodrome Forecast
Issued by NWS

Current Version | Previous Version | Text Only | Print | Product List | Glossary On
Versions: 1 2 3 4 5 6 7 8 9 10 11 12 13 14 15 16 17
000
FTUS46 KPDT 311100
TAFALW
TAF
KALW 311133Z 3112/0112 17004KT 6SM BR VCSH SCT009 OVC150
     FM311600 22007KT 5SM BR VCSH SCT004 OVC100
     FM312000 23009KT P6SM -SHRA BKN035 OVC050
     FM010600 16005KT 5SM -RA BR OVC035 PROB30 0106/0112 3SM -RA
      SCT005 BKN015 OVC020=

USA.gov is the U.S. government's official web portal to all federal, state and local government web resources and services.